sensor_id;sensor_type;location;lat;lon;timestamp;P1;durP1;ratioP1;P2;durP2;ratioP2
47129;SDS011;69689;48.122;11.542;2023-07-20T05:03:44;2.85;;;1.40;;
47129;SDS011;69689;48.122;11.542;2023-07-20T05:06:09;2.65;;;1.65;;
47129;SDS011;69689;48.122;11.542;2023-07-20T05:08:35;4.77;;;1.60;;
47129;SDS011;69689;48.122;11.542;2023-07-20T05:11:00;1.93;;;1.30;;
47129;SDS011;69689;48.122;11.542;2023-07-20T05:13:25;2.45;;;1.20;;
47129;SDS011;69689;48.122;11.542;2023-07-20T05:15:51;2.60;;;1.50;;
47129;SDS011;69689;48.122;11.542;2023-07-20T05:18:17;3.30;;;1.50;;
47129;SDS011;69689;48.122;11.542;2023-07-20T05:20:45;3.13;;;1.70;;
47129;SDS011;69689;48.122;11.542;2023-07-20T05:23:13;2.33;;;1.88;;
47129;SDS011;69689;48.122;11.542;2023-07-20T05:25:39;2.97;;;1.50;;
47129;SDS011;69689;48.122;11.542;2023-07-20T05:28:04;2.35;;;1.50;;
47129;SDS011;69689;48.122;11.542;2023-07-20T05:30:29;2.83;;;1.60;;
47129;SDS011;69689;48.122;11.542;2023-07-20T05:32:55;1.80;;;1.20;;
47129;SDS011;69689;48.122;11.542;2023-07-20T05:35:20;4.13;;;1.17;;
47129;SDS011;69689;48.122;11.542;2023-07-20T05:37:45;3.80;;;1.67;;
47129;SDS011;69689;48.122;11.542;2023-07-20T05:40:11;1.58;;;1.27;;
47129;SDS011;69689;48.122;11.542;2023-07-20T05:42:37;1.63;;;1.20;;
47129;SDS011;69689;48.122;11.542;2023-07-20T05:45:03;1.70;;;1.20;;
47129;SDS011;69689;48.122;11.542;2023-07-20T05:47:29;2.33;;;1.40;;
47129;SDS011;69689;48.122;11.542;2023-07-20T05:49:54;1.92;;;1.13;;
47129;SDS011;69689;48.122;11.542;2023-07-20T05:52:19;3.13;;;1.17;;
47129;SDS011;69689;48.122;11.542;2023-07-20T05:54:45;1.77;;;1.00;;
47129;SDS011;69689;48.122;11.542;2023-07-20T05:57:10;2.45;;;1.20;;
47129;SDS011;69689;48.122;11.542;2023-07-20T05:59:36;1.95;;;1.40;;
47129;SDS011;69689;48.122;11.542;2023-07-20T06:02:01;2.35;;;1.05;;
47129;SDS011;69689;48.122;11.542;2023-07-20T06:04:26;1.20;;;1.10;;
47129;SDS011;69689;48.122;11.542;2023-07-20T06:06:52;3.28;;;1.27;;
47129;SDS011;69689;48.122;11.542;2023-07-20T06:09:17;2.08;;;1.20;;
47129;SDS011;69689;48.122;11.542;2023-07-20T06:11:42;2.72;;;1.30;;
47129;SDS011;69689;48.122;11.542;2023-07-20T06:14:08;1.30;;;1.00;;
47129;SDS011;69689;48.122;11.542;2023-07-20T06:16:33;2.93;;;1.20;;
47129;SDS011;69689;48.122;11.542;2023-07-20T06:19:00;0.97;;;0.70;;
47129;SDS011;69689;48.122;11.542;2023-07-20T06:21:25;1.00;;;0.80;;
47129;SDS011;69689;48.122;11.542;2023-07-20T06:23:50;2.15;;;0.95;;
47129;SDS011;69689;48.122;11.542;2023-07-20T06:26:16;2.60;;;1.13;;
47129;SDS011;69689;48.122;11.542;2023-07-20T06:28:41;2.75;;;0.90;;
47129;SDS011;69689;48.122;11.542;2023-07-20T06:31:06;2.03;;;0.90;;
47129;SDS011;69689;48.122;11.542;2023-07-20T06:33:32;2.93;;;1.10;;
47129;SDS011;69689;48.122;11.542;2023-07-20T06:35:57;1.13;;;0.80;;
47129;SDS011;69689;48.122;11.542;2023-07-20T06:38:23;1.00;;;0.95;;
47129;SDS011;69689;48.122;11.542;2023-07-20T06:40:51;1.55;;;0.82;;
47129;SDS011;69689;48.122;11.542;2023-07-20T06:43:16;1.05;;;0.93;;
47129;SDS011;69689;48.122;11.542;2023-07-20T06:45:42;1.48;;;0.80;;
47129;SDS011;69689;48.122;11.542;2023-07-20T06:48:07;0.90;;;0.90;;
47129;SDS011;69689;48.122;11.542;2023-07-20T06:50:33;1.73;;;0.90;;
47129;SDS011;69689;48.122;11.542;2023-07-20T06:52:58;1.38;;;1.10;;
47129;SDS011;69689;48.122;11.542;2023-07-20T06:55:24;2.13;;;1.10;;
47129;SDS011;69689;48.122;11.542;2023-07-20T06:57:50;1.45;;;0.80;;
47129;SDS011;69689;48.122;11.542;2023-07-20T07:00:16;1.38;;;0.75;;
47129;SDS011;69689;48.122;11.542;2023-07-20T07:02:41;1.50;;;0.70;;
47129;SDS011;69689;48.122;11.542;2023-07-20T07:05:07;1.10;;;0.60;;
47129;SDS011;69689;48.122;11.542;2023-07-20T07:07:32;1.95;;;0.98;;
47129;SDS011;69689;48.122;11.542;2023-07-20T07:09:58;0.70;;;0.70;;
47129;SDS011;69689;48.122;11.542;2023-07-20T07:12:23;0.82;;;0.80;;
47129;SDS011;69689;48.122;11.542;2023-07-20T07:14:49;1.00;;;0.80;;
47129;SDS011;69689;48.122;11.542;2023-07-20T07:17:14;0.90;;;0.63;;
47129;SDS011;69689;48.122;11.542;2023-07-20T07:19:39;0.87;;;0.50;;
47129;SDS011;69689;48.122;11.542;2023-07-20T07:22:05;1.13;;;0.70;;
47129;SDS011;69689;48.122;11.542;2023-07-20T07:24:31;0.52;;;0.50;;
47129;SDS011;69689;48.122;11.542;2023-07-20T07:26:59;1.48;;;0.45;;
47129;SDS011;69689;48.122;11.542;2023-07-20T07:29:25;0.77;;;0.52;;
47129;SDS011;69689;48.122;11.542;2023-07-20T07:31:50;0.52;;;0.43;;
47129;SDS011;69689;48.122;11.542;2023-07-20T07:34:16;0.30;;;0.30;;
47129;SDS011;69689;48.122;11.542;2023-07-20T07:36:41;0.13;;;0.10;;
47129;SDS011;69689;48.122;11.542;2023-07-20T07:39:06;0.20;;;0.20;;
47129;SDS011;69689;48.122;11.542;2023-07-20T07:41:32;0.37;;;0.37;;
47129;SDS011;69689;48.122;11.542;2023-07-20T07:43:57;0.30;;;0.20;;
47129;SDS011;69689;48.122;11.542;2023-07-20T07:46:22;0.47;;;0.23;;
47129;SDS011;69689;48.122;11.542;2023-07-20T07:48:47;0.52;;;0.22;;
47129;SDS011;69689;48.122;11.542;2023-07-20T07:51:13;0.20;;;0.20;;
47129;SDS011;69689;48.122;11.542;2023-07-20T07:53:39;0.10;;;0.10;;
47129;SDS011;69689;48.122;11.542;2023-07-20T07:56:06;0.22;;;0.20;;
47129;SDS011;69689;48.122;11.542;2023-07-20T07:58:32;0.17;;;0.10;;
47129;SDS011;69689;48.122;11.542;2023-07-20T08:00:58;0.10;;;0.10;;
47129;SDS011;69689;48.122;11.542;2023-07-20T08:03:23;0.10;;;0.10;;
47129;SDS011;69689;48.122;11.542;2023-07-20T08:05:49;0.08;;;0.08;;
47129;SDS011;69689;48.122;11.542;2023-07-20T08:08:14;0.10;;;0.10;;
47129;SDS011;69689;48.122;11.542;2023-07-20T08:10:40;0.00;;;0.00;;
47129;SDS011;69689;48.122;11.542;2023-07-20T08:13:05;0.00;;;0.00;;
47129;SDS011;69689;48.122;11.542;2023-07-20T08:15:30;0.00;;;0.00;;
47129;SDS011;69689;48.122;11.542;2023-07-20T08:17:55;0.10;;;0.10;;
47129;SDS011;69689;48.122;11.542;2023-07-20T08:20:21;0.00;;;0.00;;
47129;SDS011;69689;48.122;11.542;2023-07-20T08:22:51;0.00;;;0.00;;
47129;SDS011;69689;48.122;11.542;2023-07-20T08:25:17;0.10;;;0.10;;
47129;SDS011;69689;48.122;11.542;2023-07-20T08:27:42;0.03;;;0.03;;
47129;SDS011;69689;48.122;11.542;2023-07-20T08:30:09;0.03;;;0.03;;
47129;SDS011;69689;48.122;11.542;2023-07-20T08:32:34;0.00;;;0.00;;
47129;SDS011;69689;48.122;11.542;2023-07-20T08:35:00;0.00;;;0.00;;
47129;SDS011;69689;48.122;11.542;2023-07-20T08:37:25;0.00;;;0.00;;
47129;SDS011;69689;48.122;11.542;2023-07-20T08:39:51;0.03;;;0.03;;
47129;SDS011;69689;48.122;11.542;2023-07-20T08:42:16;0.00;;;0.00;;
47129;SDS011;69689;48.122;11.542;2023-07-20T08:44:42;0.10;;;0.10;;
47129;SDS011;69689;48.122;11.542;2023-07-20T08:47:09;0.00;;;0.00;;
47129;SDS011;69689;48.122;11.542;2023-07-20T08:49:35;0.10;;;0.10;;
47129;SDS011;69689;48.122;11.542;2023-07-20T08:52:02;0.10;;;0.10;;
47129;SDS011;69689;48.122;11.542;2023-07-20T08:54:29;0.00;;;0.00;;
47129;SDS011;69689;48.122;11.542;2023-07-20T08:56:57;0.20;;;0.20;;
47129;SDS011;69689;48.122;11.542;2023-07-20T08:59:23;0.10;;;0.10;;
47129;SDS011;69689;48.122;11.542;2023-07-20T09:01:49;0.10;;;0.10;;
47129;SDS011;69689;48.122;11.542;2023-07-20T09:04:17;0.10;;;0.10;;
47129;SDS011;69689;48.122;11.542;2023-07-20T09:06:42;0.10;;;0.10;;
47129;SDS011;69689;48.122;11.542;2023-07-20T09:09:07;0.30;;;0.30;;
47129;SDS011;69689;48.122;11.542;2023-07-20T09:11:33;0.00;;;0.00;;
47129;SDS011;69689;48.122;11.542;2023-07-20T09:14:08;0.10;;;0.10;;
47129;SDS011;69689;48.122;11.542;2023-07-20T09:19:14;0.15;;;0.10;;
47129;SDS011;69689;48.122;11.542;2023-07-20T09:21:40;0.10;;;0.10;;
47129;SDS011;69689;48.122;11.542;2023-07-20T09:24:05;0.00;;;0.00;;
47129;SDS011;69689;48.122;11.542;2023-07-20T09:26:31;0.10;;;0.10;;
47129;SDS011;69689;48.122;11.542;2023-07-20T09:29:06;0.00;;;0.00;;
47129;SDS011;69689;48.122;11.542;2023-07-20T09:31:32;0.10;;;0.10;;
47129;SDS011;69689;48.122;11.542;2023-07-20T09:33:57;0.10;;;0.10;;
47129;SDS011;69689;48.122;11.542;2023-07-20T09:36:23;0.20;;;0.20;;
47129;SDS011;69689;48.122;11.542;2023-07-20T09:38:48;0.10;;;0.10;;
47129;SDS011;69689;48.122;11.542;2023-07-20T09:41:14;0.20;;;0.20;;
47129;SDS011;69689;48.122;11.542;2023-07-20T09:43:43;0.40;;;0.40;;
47129;SDS011;69689;48.122;11.542;2023-07-20T09:46:08;0.20;;;0.20;;
47129;SDS011;69689;48.122;11.542;2023-07-20T09:48:33;0.30;;;0.30;;
47129;SDS011;69689;48.122;11.542;2023-07-20T09:50:59;0.27;;;0.27;;
47129;SDS011;69689;48.122;11.542;2023-07-20T09:53:25;0.47;;;0.47;;
47129;SDS011;69689;48.122;11.542;2023-07-20T09:55:51;1.13;;;1.13;;
47129;SDS011;69689;48.122;11.542;2023-07-20T09:58:17;0.50;;;0.50;;
47129;SDS011;69689;48.122;11.542;2023-07-20T10:00:43;0.90;;;0.90;;
47129;SDS011;69689;48.122;11.542;2023-07-20T10:03:16;0.60;;;0.60;;
47129;SDS011;69689;48.122;11.542;2023-07-20T10:05:46;0.90;;;0.90;;
47129;SDS011;69689;48.122;11.542;2023-07-20T10:08:14;1.45;;;1.45;;
47129;SDS011;69689;48.122;11.542;2023-07-20T10:10:40;1.48;;;1.48;;
47129;SDS011;69689;48.122;11.542;2023-07-20T10:13:10;0.20;;;0.20;;
47129;SDS011;69689;48.122;11.542;2023-07-20T10:15:40;0.30;;;0.30;;
47129;SDS011;69689;48.122;11.542;2023-07-20T10:18:12;0.30;;;0.30;;
47129;SDS011;69689;48.122;11.542;2023-07-20T10:20:41;0.17;;;0.17;;
47129;SDS011;69689;48.122;11.542;2023-07-20T10:23:07;0.10;;;0.10;;
47129;SDS011;69689;48.122;11.542;2023-07-20T10:25:33;0.08;;;0.08;;
47129;SDS011;69689;48.122;11.542;2023-07-20T10:28:02;0.00;;;0.00;;
47129;SDS011;69689;48.122;11.542;2023-07-20T10:30:29;0.00;;;0.00;;
47129;SDS011;69689;48.122;11.542;2023-07-20T10:32:55;0.05;;;0.05;;
47129;SDS011;69689;48.122;11.542;2023-07-20T10:35:20;0.10;;;0.10;;
47129;SDS011;69689;48.122;11.542;2023-07-20T10:42:50;0.13;;;0.13;;
47129;SDS011;69689;48.122;11.542;2023-07-20T10:45:17;0.30;;;0.30;;
47129;SDS011;69689;48.122;11.542;2023-07-20T10:47:45;0.22;;;0.22;;
47129;SDS011;69689;48.122;11.542;2023-07-20T10:50:11;1.08;;;1.08;;
47129;SDS011;69689;48.122;11.542;2023-07-20T10:52:40;1.58;;;1.58;;
47129;SDS011;69689;48.122;11.542;2023-07-20T10:55:16;0.77;;;0.77;;
47129;SDS011;69689;48.122;11.542;2023-07-20T10:57:41;0.30;;;0.30;;
47129;SDS011;69689;48.122;11.542;2023-07-20T11:00:11;0.40;;;0.40;;
47129;SDS011;69689;48.122;11.542;2023-07-20T11:02:47;0.90;;;0.90;;
47129;SDS011;69689;48.122;11.542;2023-07-20T11:05:32;1.60;;;1.60;;
47129;SDS011;69689;48.122;11.542;2023-07-20T11:08:09;1.67;;;1.67;;
47129;SDS011;69689;48.122;11.542;2023-07-20T11:10:35;1.23;;;1.23;;
47129;SDS011;69689;48.122;11.542;2023-07-20T11:16:00;0.70;;;0.70;;
47129;SDS011;69689;48.122;11.542;2023-07-20T11:18:28;5.32;;;5.22;;
47129;SDS011;69689;48.122;11.542;2023-07-20T11:20:54;4.53;;;4.43;;
47129;SDS011;69689;48.122;11.542;2023-07-20T11:23:19;3.53;;;3.42;;
47129;SDS011;69689;48.122;11.542;2023-07-20T11:25:45;1.85;;;1.85;;
47129;SDS011;69689;48.122;11.542;2023-07-20T11:28:11;1.27;;;1.27;;
47129;SDS011;69689;48.122;11.542;2023-07-20T11:30:37;2.78;;;2.78;;
47129;SDS011;69689;48.122;11.542;2023-07-20T11:33:03;2.08;;;2.08;;
47129;SDS011;69689;48.122;11.542;2023-07-20T11:35:29;3.30;;;3.25;;
47129;SDS011;69689;48.122;11.542;2023-07-20T11:37:55;2.10;;;2.10;;
47129;SDS011;69689;48.122;11.542;2023-07-20T11:40:21;0.77;;;0.77;;
47129;SDS011;69689;48.122;11.542;2023-07-20T11:42:47;0.70;;;0.70;;
47129;SDS011;69689;48.122;11.542;2023-07-20T11:45:15;0.70;;;0.70;;
47129;SDS011;69689;48.122;11.542;2023-07-20T11:47:41;0.68;;;0.68;;
47129;SDS011;69689;48.122;11.542;2023-07-20T11:50:09;2.72;;;2.70;;
47129;SDS011;69689;48.122;11.542;2023-07-20T11:52:36;8.95;;;8.75;;
47129;SDS011;69689;48.122;11.542;2023-07-20T11:55:01;16.35;;;15.88;;
47129;SDS011;69689;48.122;11.542;2023-07-20T11:57:28;50.65;;;49.15;;
47129;SDS011;69689;48.122;11.542;2023-07-20T12:00:02;77.73;;;75.53;;
47129;SDS011;69689;48.122;11.542;2023-07-20T12:02:36;138.10;;;134.45;;
47129;SDS011;69689;48.122;11.542;2023-07-20T12:05:02;191.75;;;186.98;;
47129;SDS011;69689;48.122;11.542;2023-07-20T12:07:28;122.25;;;119.00;;
47129;SDS011;69689;48.122;11.542;2023-07-20T12:12:31;105.55;;;102.68;;
47129;SDS011;69689;48.122;11.542;2023-07-20T12:15:11;179.63;;;175.07;;
47129;SDS011;69689;48.122;11.542;2023-07-20T12:17:45;120.30;;;117.10;;
47129;SDS011;69689;48.122;11.542;2023-07-20T12:20:11;46.30;;;44.95;;
47129;SDS011;69689;48.122;11.542;2023-07-20T12:22:40;18.20;;;17.70;;
47129;SDS011;69689;48.122;11.542;2023-07-20T12:25:06;5.32;;;5.22;;
47129;SDS011;69689;48.122;11.542;2023-07-20T12:27:33;5.28;;;5.18;;
47129;SDS011;69689;48.122;11.542;2023-07-20T12:29:58;24.92;;;24.23;;
47129;SDS011;69689;48.122;11.542;2023-07-20T12:32:23;68.60;;;66.65;;
47129;SDS011;69689;48.122;11.542;2023-07-20T12:34:49;151.50;;;147.60;;
47129;SDS011;69689;48.122;11.542;2023-07-20T12:37:17;296.33;;;289.47;;
47129;SDS011;69689;48.122;11.542;2023-07-20T12:39:43;334.77;;;327.13;;
47129;SDS011;69689;48.122;11.542;2023-07-20T12:42:11;309.33;;;302.15;;
47129;SDS011;69689;48.122;11.542;2023-07-20T12:44:37;220.70;;;215.33;;
47129;SDS011;69689;48.122;11.542;2023-07-20T12:47:02;185.73;;;181.10;;
47129;SDS011;69689;48.122;11.542;2023-07-20T12:49:28;173.50;;;169.07;;
47129;SDS011;69689;48.122;11.542;2023-07-20T12:51:53;118.07;;;114.88;;
47129;SDS011;69689;48.122;11.542;2023-07-20T12:54:18;192.13;;;187.37;;
47129;SDS011;69689;48.122;11.542;2023-07-20T12:56:43;256.03;;;249.90;;
47129;SDS011;69689;48.122;11.542;2023-07-20T12:59:09;336.03;;;328.30;;
47129;SDS011;69689;48.122;11.542;2023-07-20T13:01:34;390.55;;;381.77;;
47129;SDS011;69689;48.122;11.542;2023-07-20T13:04:00;421.10;;;411.88;;
47129;SDS011;69689;48.122;11.542;2023-07-20T13:06:25;425.50;;;416.20;;
47129;SDS011;69689;48.122;11.542;2023-07-20T13:08:51;434.30;;;424.75;;
47129;SDS011;69689;48.122;11.542;2023-07-20T13:11:20;469.55;;;459.35;;
47129;SDS011;69689;48.122;11.542;2023-07-20T13:13:47;533.25;;;521.88;;
47129;SDS011;69689;48.122;11.542;2023-07-20T13:16:12;312.23;;;304.93;;
47129;SDS011;69689;48.122;11.542;2023-07-20T13:18:37;230.50;;;224.88;;
47129;SDS011;69689;48.122;11.542;2023-07-20T13:21:03;172.80;;;168.40;;
47129;SDS011;69689;48.122;11.542;2023-07-20T13:23:28;71.03;;;69.03;;
47129;SDS011;69689;48.122;11.542;2023-07-20T13:25:53;38.43;;;37.30;;
47129;SDS011;69689;48.122;11.542;2023-07-20T13:28:19;51.93;;;50.43;;
47129;SDS011;69689;48.122;11.542;2023-07-20T13:30:44;66.73;;;64.83;;
47129;SDS011;69689;48.122;11.542;2023-07-20T13:33:11;61.53;;;59.78;;
47129;SDS011;69689;48.122;11.542;2023-07-20T13:35:36;57.92;;;56.28;;
47129;SDS011;69689;48.122;11.542;2023-07-20T13:38:01;120.20;;;117.00;;
47129;SDS011;69689;48.122;11.542;2023-07-20T13:40:27;207.98;;;202.88;;
47129;SDS011;69689;48.122;11.542;2023-07-20T13:42:52;303.13;;;296.13;;
47129;SDS011;69689;48.122;11.542;2023-07-20T13:45:17;442.47;;;432.80;;
47129;SDS011;69689;48.122;11.542;2023-07-20T13:47:43;243.02;;;237.15;;
47129;SDS011;69689;48.122;11.542;2023-07-20T13:50:08;161.50;;;157.37;;
47129;SDS011;69689;48.122;11.542;2023-07-20T13:52:33;133.23;;;129.70;;
47129;SDS011;69689;48.122;11.542;2023-07-20T13:55:00;120.43;;;117.20;;
47129;SDS011;69689;48.122;11.542;2023-07-20T13:57:25;90.40;;;87.87;;
47129;SDS011;69689;48.122;11.542;2023-07-20T13:59:50;69.28;;;67.28;;
47129;SDS011;69689;48.122;11.542;2023-07-20T14:02:16;76.22;;;74.10;;
47129;SDS011;69689;48.122;11.542;2023-07-20T14:04:41;77.30;;;75.10;;
47129;SDS011;69689;48.122;11.542;2023-07-20T14:07:06;119.20;;;116.00;;
47129;SDS011;69689;48.122;11.542;2023-07-20T14:09:32;230.57;;;225.02;;
47129;SDS011;69689;48.122;11.542;2023-07-20T14:11:57;312.60;;;305.33;;
47129;SDS011;69689;48.122;11.542;2023-07-20T14:14:23;413.83;;;404.65;;
47129;SDS011;69689;48.122;11.542;2023-07-20T14:16:49;519.27;;;508.20;;
47129;SDS011;69689;48.122;11.542;2023-07-20T14:19:14;487.13;;;476.65;;
47129;SDS011;69689;48.122;11.542;2023-07-20T14:21:39;358.33;;;350.25;;
47129;SDS011;69689;48.122;11.542;2023-07-20T14:24:05;328.77;;;321.13;;
47129;SDS011;69689;48.122;11.542;2023-07-20T14:26:30;447.30;;;437.73;;
47129;SDS011;69689;48.122;11.542;2023-07-20T14:28:55;442.53;;;432.80;;
47129;SDS011;69689;48.122;11.542;2023-07-20T14:31:21;507.67;;;496.93;;
47129;SDS011;69689;48.122;11.542;2023-07-20T14:33:46;299.73;;;292.77;;
47129;SDS011;69689;48.122;11.542;2023-07-20T14:36:12;329.00;;;321.48;;
47129;SDS011;69689;48.122;11.542;2023-07-20T14:38:37;402.67;;;393.70;;
47129;SDS011;69689;48.122;11.542;2023-07-20T14:41:02;253.10;;;247.02;;
47129;SDS011;69689;48.122;11.542;2023-07-20T14:43:28;339.27;;;331.70;;
47129;SDS011;69689;48.122;11.542;2023-07-20T14:45:54;249.73;;;243.77;;
47129;SDS011;69689;48.122;11.542;2023-07-20T14:48:19;133.30;;;129.80;;
47129;SDS011;69689;48.122;11.542;2023-07-20T14:50:45;97.95;;;95.22;;
47129;SDS011;69689;48.122;11.542;2023-07-20T14:53:12;46.92;;;45.55;;
47129;SDS011;69689;48.122;11.542;2023-07-20T14:55:38;24.33;;;23.63;;
47129;SDS011;69689;48.122;11.542;2023-07-20T14:58:03;35.20;;;34.17;;
47129;SDS011;69689;48.122;11.542;2023-07-20T15:00:28;31.77;;;30.87;;
47129;SDS011;69689;48.122;11.542;2023-07-20T15:02:55;28.50;;;27.67;;
47129;SDS011;69689;48.122;11.542;2023-07-20T15:05:23;38.17;;;37.05;;
47129;SDS011;69689;48.122;11.542;2023-07-20T15:07:49;23.92;;;23.23;;
47129;SDS011;69689;48.122;11.542;2023-07-20T15:10:15;19.23;;;18.70;;
47129;SDS011;69689;48.122;11.542;2023-07-20T15:12:40;54.58;;;53.05;;
47129;SDS011;69689;48.122;11.542;2023-07-20T15:17:32;134.63;;;131.07;;
47129;SDS011;69689;48.122;11.542;2023-07-20T15:19:57;118.85;;;115.65;;
47129;SDS011;69689;48.122;11.542;2023-07-20T15:22:23;80.50;;;78.22;;
47129;SDS011;69689;48.122;11.542;2023-07-20T15:24:48;45.53;;;44.22;;
47129;SDS011;69689;48.122;11.542;2023-07-20T15:27:14;65.00;;;63.13;;
47129;SDS011;69689;48.122;11.542;2023-07-20T15:29:45;82.87;;;80.57;;
47129;SDS011;69689;48.122;11.542;2023-07-20T15:32:14;50.58;;;49.10;;
47129;SDS011;69689;48.122;11.542;2023-07-20T15:34:41;31.48;;;30.55;;
47129;SDS011;69689;48.122;11.542;2023-07-20T15:37:06;52.25;;;50.75;;
47129;SDS011;69689;48.122;11.542;2023-07-20T15:39:32;36.53;;;35.45;;
47129;SDS011;69689;48.122;11.542;2023-07-20T15:41:57;10.47;;;10.17;;
47129;SDS011;69689;48.122;11.542;2023-07-20T15:44:23;3.63;;;3.53;;
47129;SDS011;69689;48.122;11.542;2023-07-20T15:46:48;1.95;;;1.95;;
47129;SDS011;69689;48.122;11.542;2023-07-20T15:49:14;1.48;;;1.48;;
47129;SDS011;69689;48.122;11.542;2023-07-20T15:51:39;0.82;;;0.82;;
47129;SDS011;69689;48.122;11.542;2023-07-20T15:54:07;0.80;;;0.80;;
47129;SDS011;69689;48.122;11.542;2023-07-20T15:56:35;6.93;;;6.75;;
47129;SDS011;69689;48.122;11.542;2023-07-20T15:59:01;17.17;;;16.67;;
47129;SDS011;69689;48.122;11.542;2023-07-20T16:01:27;8.38;;;8.18;;
47129;SDS011;69689;48.122;11.542;2023-07-20T16:03:54;25.15;;;24.45;;
47129;SDS011;69689;48.122;11.542;2023-07-20T16:06:19;10.32;;;10.02;;
47129;SDS011;69689;48.122;11.542;2023-07-20T16:08:45;5.33;;;5.23;;
47129;SDS011;69689;48.122;11.542;2023-07-20T16:11:11;3.72;;;3.63;;
47129;SDS011;69689;48.122;11.542;2023-07-20T16:13:36;2.22;;;2.22;;
47129;SDS011;69689;48.122;11.542;2023-07-20T16:16:01;1.27;;;1.27;;
47129;SDS011;69689;48.122;11.542;2023-07-20T16:18:28;1.75;;;1.75;;
47129;SDS011;69689;48.122;11.542;2023-07-20T16:20:55;1.85;;;1.85;;
47129;SDS011;69689;48.122;11.542;2023-07-20T16:23:20;5.85;;;5.75;;
47129;SDS011;69689;48.122;11.542;2023-07-20T16:25:46;14.18;;;13.77;;
47129;SDS011;69689;48.122;11.542;2023-07-20T16:28:11;13.80;;;13.40;;
47129;SDS011;69689;48.122;11.542;2023-07-20T16:30:37;23.45;;;22.75;;
47129;SDS011;69689;48.122;11.542;2023-07-20T16:33:02;33.17;;;32.17;;
47129;SDS011;69689;48.122;11.542;2023-07-20T16:35:29;40.70;;;39.50;;
47129;SDS011;69689;48.122;11.542;2023-07-20T16:37:55;56.63;;;55.00;;
47129;SDS011;69689;48.122;11.542;2023-07-20T16:40:20;57.00;;;55.33;;
47129;SDS011;69689;48.122;11.542;2023-07-20T16:42:46;31.02;;;30.13;;
47129;SDS011;69689;48.122;11.542;2023-07-20T16:45:11;36.08;;;35.00;;
47129;SDS011;69689;48.122;11.542;2023-07-20T16:47:38;23.90;;;23.20;;
47129;SDS011;69689;48.122;11.542;2023-07-20T16:50:03;8.13;;;7.93;;
47129;SDS011;69689;48.122;11.542;2023-07-20T16:52:30;4.72;;;4.63;;
47129;SDS011;69689;48.122;11.542;2023-07-20T16:54:55;12.90;;;12.55;;
47129;SDS011;69689;48.122;11.542;2023-07-20T16:57:20;11.18;;;10.88;;
47129;SDS011;69689;48.122;11.542;2023-07-20T16:59:46;15.20;;;14.77;;
47129;SDS011;69689;48.122;11.542;2023-07-20T17:02:11;2.35;;;2.35;;
47129;SDS011;69689;48.122;11.542;2023-07-20T17:04:36;1.30;;;1.30;;
47129;SDS011;69689;48.122;11.542;2023-07-20T17:07:02;3.13;;;3.10;;
47129;SDS011;69689;48.122;11.542;2023-07-20T17:09:28;7.85;;;7.65;;
47129;SDS011;69689;48.122;11.542;2023-07-20T17:11:55;9.43;;;9.23;;
47129;SDS011;69689;48.122;11.542;2023-07-20T17:14:21;13.27;;;12.87;;
47129;SDS011;69689;48.122;11.542;2023-07-20T17:16:46;15.25;;;14.85;;
47129;SDS011;69689;48.122;11.542;2023-07-20T17:19:11;20.45;;;19.85;;
47129;SDS011;69689;48.122;11.542;2023-07-20T17:21:37;23.60;;;22.90;;
47129;SDS011;69689;48.122;11.542;2023-07-20T17:24:03;12.95;;;12.63;;
47129;SDS011;69689;48.122;11.542;2023-07-20T17:26:29;6.47;;;6.35;;
47129;SDS011;69689;48.122;11.542;2023-07-20T17:28:54;3.00;;;3.00;;
47129;SDS011;69689;48.122;11.542;2023-07-20T17:31:20;0.90;;;0.90;;
47129;SDS011;69689;48.122;11.542;2023-07-20T17:33:46;0.30;;;0.30;;
47129;SDS011;69689;48.122;11.542;2023-07-20T17:36:11;0.10;;;0.10;;
47129;SDS011;69689;48.122;11.542;2023-07-20T17:38:37;0.17;;;0.17;;
47129;SDS011;69689;48.122;11.542;2023-07-20T17:41:02;0.00;;;0.00;;
47129;SDS011;69689;48.122;11.542;2023-07-20T17:43:29;0.03;;;0.03;;
47129;SDS011;69689;48.122;11.542;2023-07-20T17:45:54;0.00;;;0.00;;
47129;SDS011;69689;48.122;11.542;2023-07-20T17:48:20;0.00;;;0.00;;
47129;SDS011;69689;48.122;11.542;2023-07-20T17:50:46;0.00;;;0.00;;
47129;SDS011;69689;48.122;11.542;2023-07-20T17:53:11;0.00;;;0.00;;
47129;SDS011;69689;48.122;11.542;2023-07-20T17:55:37;0.00;;;0.00;;
47129;SDS011;69689;48.122;11.542;2023-07-20T17:58:02;0.00;;;0.00;;
47129;SDS011;69689;48.122;11.542;2023-07-20T18:00:28;0.00;;;0.00;;
47129;SDS011;69689;48.122;11.542;2023-07-20T18:02:55;0.00;;;0.00;;
47129;SDS011;69689;48.122;11.542;2023-07-20T18:05:20;0.00;;;0.00;;
47129;SDS011;69689;48.122;11.542;2023-07-20T18:07:46;0.00;;;0.00;;
47129;SDS011;69689;48.122;11.542;2023-07-20T18:10:11;0.00;;;0.00;;
47129;SDS011;69689;48.122;11.542;2023-07-20T18:12:37;0.00;;;0.00;;
47129;SDS011;69689;48.122;11.542;2023-07-20T18:15:03;0.00;;;0.00;;
47129;SDS011;69689;48.122;11.542;2023-07-20T18:17:30;0.00;;;0.00;;
47129;SDS011;69689;48.122;11.542;2023-07-20T18:19:56;0.00;;;0.00;;
47129;SDS011;69689;48.122;11.542;2023-07-20T18:22:21;0.00;;;0.00;;
47129;SDS011;69689;48.122;11.542;2023-07-20T18:24:48;0.00;;;0.00;;
47129;SDS011;69689;48.122;11.542;2023-07-20T18:27:15;0.00;;;0.00;;
47129;SDS011;69689;48.122;11.542;2023-07-20T18:29:41;0.00;;;0.00;;
47129;SDS011;69689;48.122;11.542;2023-07-20T18:32:06;0.00;;;0.00;;
47129;SDS011;69689;48.122;11.542;2023-07-20T18:34:32;0.28;;;0.00;;
47129;SDS011;69689;48.122;11.542;2023-07-20T18:36:57;0.00;;;0.00;;
47129;SDS011;69689;48.122;11.542;2023-07-20T18:39:22;0.00;;;0.00;;
47129;SDS011;69689;48.122;11.542;2023-07-20T18:41:48;0.00;;;0.00;;
47129;SDS011;69689;48.122;11.542;2023-07-20T18:44:13;0.00;;;0.00;;
47129;SDS011;69689;48.122;11.542;2023-07-20T18:46:39;0.00;;;0.00;;
47129;SDS011;69689;48.122;11.542;2023-07-20T18:49:04;0.00;;;0.00;;
47129;SDS011;69689;48.122;11.542;2023-07-20T18:51:29;0.00;;;0.00;;
47129;SDS011;69689;48.122;11.542;2023-07-20T18:53:55;0.10;;;0.00;;
47129;SDS011;69689;48.122;11.542;2023-07-20T18:56:20;0.00;;;0.00;;
47129;SDS011;69689;48.122;11.542;2023-07-20T18:58:46;0.10;;;0.00;;
